createdAt,value
2022-10-24T00:01:20.535Z,75.73
2022-10-24T00:03:48.028Z,75.73
2022-10-24T00:06:15.313Z,75.63
2022-10-24T00:08:43.081Z,75.58
2022-10-24T00:11:16.548Z,75.71
2022-10-24T00:13:43.380Z,75.38
2022-10-24T00:16:10.735Z,75.98
2022-10-24T00:18:37.956Z,75.81
2022-10-24T00:21:05.010Z,75.58
2022-10-24T00:23:31.914Z,75.71
2022-10-24T00:26:01.827Z,75.80
2022-10-24T00:28:29.896Z,75.34
2022-10-24T00:30:57.263Z,75.57
2022-10-24T00:33:25.374Z,75.44
2022-10-24T00:35:52.136Z,75.47
2022-10-24T00:38:18.914Z,75.99
2022-10-24T00:40:45.595Z,75.63
2022-10-24T00:43:17.466Z,75.79
2022-10-24T00:45:56.095Z,75.62
2022-10-24T00:48:33.638Z,75.57
2022-10-24T00:51:24.688Z,75.78
2022-10-24T00:56:32.333Z,75.54
2022-10-24T00:59:01.649Z,75.33
2022-10-24T01:01:29.729Z,75.21
2022-10-24T01:03:56.434Z,74.96
2022-10-24T01:06:40.436Z,75.71
2022-10-24T01:09:07.128Z,75.25
2022-10-24T01:11:40.409Z,74.53
2022-10-24T01:14:31.223Z,74.34
2022-10-24T01:17:12.448Z,74.15
2022-10-24T01:19:47.930Z,74.57
2022-10-24T01:22:23.162Z,74.53
2022-10-24T01:25:17.390Z,74.33
2022-10-24T01:27:49.877Z,74.09
2022-10-24T01:30:17.491Z,74.45
2022-10-24T01:32:48.126Z,74.84
2022-10-24T01:35:37.082Z,74.52
2022-10-24T01:38:14.799Z,74.53
2022-10-24T01:40:55.840Z,74.47
2022-10-24T01:43:27.259Z,74.88
2022-10-24T01:46:00.550Z,74.67
2022-10-24T01:48:30.268Z,75.11
2022-10-24T01:50:59.908Z,74.80
2022-10-24T01:53:29.279Z,74.88
2022-10-24T01:55:57.099Z,75.00
2022-10-24T01:58:24.661Z,75.13
2022-10-24T02:00:55.053Z,74.97
2022-10-24T02:03:32.302Z,75.11
2022-10-24T02:06:07.074Z,74.81
2022-10-24T02:08:40.905Z,74.79
2022-10-24T02:11:08.895Z,74.69
2022-10-24T02:13:47.731Z,74.91
2022-10-24T02:16:18.801Z,74.67
2022-10-24T02:18:47.568Z,74.78
2022-10-24T02:21:20.587Z,74.66
2022-10-24T02:24:20.882Z,75.19
2022-10-24T02:26:53.366Z,74.52
2022-10-24T02:29:43.414Z,74.43
2022-10-24T02:32:14.852Z,74.65
2022-10-24T02:34:44.199Z,74.70
2022-10-24T02:37:16.116Z,74.62
2022-10-24T02:39:47.242Z,74.16
2022-10-24T02:42:14.810Z,74.00
2022-10-24T02:44:43.745Z,73.87
2022-10-24T02:47:13.830Z,73.47
2022-10-24T02:49:41.132Z,73.21
2022-10-24T02:52:08.145Z,72.91
2022-10-24T02:54:34.954Z,72.74
2022-10-24T02:57:03.370Z,72.52
2022-10-24T02:59:30.576Z,72.24
2022-10-24T03:01:57.578Z,71.74
2022-10-24T03:04:24.338Z,71.49
2022-10-24T03:06:51.080Z,71.75
2022-10-24T03:09:17.704Z,71.92
2022-10-24T03:11:44.422Z,72.15
2022-10-24T03:14:11.093Z,72.49
2022-10-24T03:16:37.800Z,72.65
2022-10-24T03:19:04.465Z,73.03
2022-10-24T03:21:31.200Z,73.19
2022-10-24T03:23:57.930Z,73.25
2022-10-24T03:26:24.769Z,73.24
2022-10-24T03:28:51.465Z,73.36
2022-10-24T03:31:18.096Z,73.38
2022-10-24T03:33:44.736Z,73.41
2022-10-24T03:36:11.407Z,73.67
2022-10-24T03:38:38.049Z,73.71
2022-10-24T03:41:05.212Z,74.21
2022-10-24T03:43:31.910Z,73.49
2022-10-24T03:45:59.517Z,73.82
2022-10-24T03:48:26.947Z,74.00
2022-10-24T03:50:53.881Z,74.03
2022-10-24T03:53:20.557Z,74.06
2022-10-24T03:55:47.207Z,74.35
2022-10-24T03:58:13.817Z,74.25
2022-10-24T04:00:41.435Z,74.51
2022-10-24T04:03:09.619Z,74.53
2022-10-24T04:05:36.818Z,74.61
2022-10-24T04:08:03.717Z,74.27
2022-10-24T04:10:30.382Z,74.41
2022-10-24T04:12:57.125Z,74.46
2022-10-24T04:15:24.046Z,74.23
2022-10-24T04:17:50.772Z,74.38
2022-10-24T04:20:20.084Z,74.00
2022-10-24T04:22:47.643Z,74.24
2022-10-24T04:25:15.398Z,74.08
2022-10-24T04:27:42.305Z,73.87
2022-10-24T04:30:16.352Z,74.43
2022-10-24T04:32:44.453Z,74.12
2022-10-24T04:35:11.997Z,73.92
2022-10-24T04:37:38.644Z,73.76
2022-10-24T04:40:06.206Z,74.15
2022-10-24T04:42:33.907Z,73.96
2022-10-24T04:45:00.601Z,73.99
2022-10-24T04:47:27.265Z,74.04
2022-10-24T04:49:53.937Z,74.47
2022-10-24T04:52:20.740Z,74.37
2022-10-24T04:54:47.366Z,74.72
2022-10-24T04:57:14.075Z,74.66
2022-10-24T04:59:40.774Z,74.83
2022-10-24T05:02:07.676Z,74.84
2022-10-24T05:04:34.389Z,74.82
2022-10-24T05:07:01.522Z,74.98
2022-10-24T05:09:28.244Z,75.08
2022-10-24T05:11:58.303Z,75.54
2022-10-24T05:14:25.084Z,75.06
2022-10-24T05:16:51.941Z,74.81
2022-10-24T05:19:19.607Z,75.35
2022-10-24T05:21:46.501Z,74.88
2022-10-24T05:24:13.452Z,74.81
2022-10-24T05:26:40.115Z,74.95
2022-10-24T05:31:34.853Z,75.24
2022-10-24T05:34:01.592Z,75.13
2022-10-24T05:36:28.251Z,74.96
2022-10-24T05:38:54.973Z,74.99
2022-10-24T05:41:21.605Z,74.94
2022-10-24T05:43:48.240Z,74.71
2022-10-24T05:46:14.850Z,74.79
2022-10-24T05:48:41.515Z,74.62
2022-10-24T05:51:08.119Z,74.67
2022-10-24T05:53:34.793Z,74.96
2022-10-24T05:56:01.632Z,75.32
2022-10-24T05:58:28.270Z,74.95
2022-10-24T06:00:54.935Z,75.41
2022-10-24T06:03:22.717Z,75.26
2022-10-24T06:05:50.429Z,75.38
2022-10-24T06:08:17.385Z,75.02
2022-10-24T06:10:49.749Z,75.85
2022-10-24T06:13:17.796Z,75.26
2022-10-24T06:15:44.779Z,75.19
2022-10-24T06:18:11.536Z,75.19
2022-10-24T06:20:38.454Z,75.29
2022-10-24T06:23:05.114Z,75.33
2022-10-24T06:25:31.865Z,75.50
2022-10-24T06:27:58.635Z,75.71
2022-10-24T06:30:25.384Z,75.62
2022-10-24T06:32:52.190Z,75.87
2022-10-24T06:35:19.571Z,75.76
2022-10-24T06:37:48.206Z,75.36
2022-10-24T06:40:16.863Z,75.61
2022-10-24T06:42:43.637Z,75.56
2022-10-24T06:45:11.089Z,75.51
2022-10-24T06:47:37.730Z,75.46
2022-10-24T06:50:05.528Z,75.36
2022-10-24T06:52:32.531Z,75.31
2022-10-24T06:54:59.150Z,74.78
2022-10-24T06:57:26.022Z,74.35
2022-10-24T06:59:53.326Z,74.01
2022-10-24T07:02:20.231Z,73.57
2022-10-24T07:04:46.930Z,72.51
2022-10-24T07:07:18.855Z,71.58
2022-10-24T07:09:45.728Z,71.07
2022-10-24T07:12:12.580Z,70.28
2022-10-24T07:14:39.211Z,68.98
2022-10-24T07:17:05.925Z,68.74
2022-10-24T07:19:35.215Z,68.32
2022-10-24T07:22:04.366Z,67.97
2022-10-24T07:24:31.682Z,67.76
2022-10-24T07:26:58.339Z,67.43
2022-10-24T07:29:25.110Z,66.96
2022-10-24T07:31:51.886Z,66.51
2022-10-24T07:34:18.690Z,65.39
2022-10-24T07:36:45.426Z,63.73
2022-10-24T07:39:13.402Z,63.01
2022-10-24T07:41:41.653Z,62.50
2022-10-24T07:44:08.545Z,62.30
2022-10-24T07:46:35.293Z,63.09
2022-10-24T07:49:01.907Z,61.58
2022-10-24T07:51:29.731Z,60.94
2022-10-24T07:53:58.133Z,61.57
2022-10-24T07:56:25.105Z,61.66
2022-10-24T07:58:52.003Z,61.18
2022-10-24T08:01:23.050Z,61.31
2022-10-24T08:03:50.317Z,59.76
2022-10-24T08:06:20.383Z,59.07
2022-10-24T08:08:47.281Z,59.38
2022-10-24T08:11:19.404Z,59.29
2022-10-24T08:13:46.087Z,57.77
2022-10-24T08:16:14.613Z,54.71
2022-10-24T08:18:41.238Z,51.88
2022-10-24T08:21:13.628Z,49.45
2022-10-24T08:23:43.887Z,47.61
2022-10-24T08:26:13.793Z,46.12
2022-10-24T08:28:41.396Z,45.20
2022-10-24T08:31:11.736Z,44.60
2022-10-24T08:33:38.870Z,44.19
2022-10-24T08:36:15.328Z,43.99
2022-10-24T08:38:41.912Z,42.84
2022-10-24T08:41:15.853Z,42.54
2022-10-24T08:43:42.954Z,40.87
2022-10-24T08:46:32.635Z,36.79
2022-10-24T08:49:28.433Z,34.02
2022-10-24T08:52:07.120Z,33.13
2022-10-24T08:54:39.154Z,31.36
2022-10-24T08:57:07.290Z,30.40
2022-10-24T08:59:36.263Z,28.56
2022-10-24T09:02:17.461Z,26.96
2022-10-24T09:04:51.548Z,24.99
2022-10-24T09:07:21.741Z,24.43
2022-10-24T09:10:03.052Z,22.87
2022-10-24T09:12:29.725Z,23.27
2022-10-24T09:14:59.508Z,23.62
2022-10-24T09:17:34.703Z,23.73
2022-10-24T09:20:19.868Z,23.23
2022-10-24T09:22:47.338Z,22.81
2022-10-24T09:25:21.731Z,21.69
2022-10-24T09:27:49.329Z,22.53
2022-10-24T09:30:20.212Z,23.76
2022-10-24T09:32:47.948Z,24.39
2022-10-24T09:35:22.504Z,23.46
2022-10-24T09:37:58.095Z,23.88
2022-10-24T09:40:31.425Z,21.92
2022-10-24T09:43:19.246Z,21.50
2022-10-24T09:45:49.041Z,20.35
2022-10-24T09:48:25.882Z,20.91
2022-10-24T09:50:56.718Z,20.51
2022-10-24T09:53:26.153Z,20.22
2022-10-24T09:55:58.187Z,20.28
2022-10-24T09:58:32.291Z,20.73
2022-10-24T10:01:20.705Z,21.94
2022-10-24T10:04:07.585Z,23.93
2022-10-24T10:06:42.974Z,25.21
2022-10-24T10:09:16.904Z,27.15
2022-10-24T10:11:49.366Z,29.32
2022-10-24T10:14:24.356Z,30.55
2022-10-24T10:17:02.754Z,30.38
2022-10-24T10:19:35.121Z,31.10
2022-10-24T10:22:21.330Z,31.70
2022-10-24T10:24:48.616Z,31.96
2022-10-24T10:27:35.391Z,30.34
2022-10-24T10:30:17.130Z,29.40
2022-10-24T10:32:57.573Z,31.12
2022-10-24T10:35:48.997Z,31.96
2022-10-24T10:38:45.644Z,33.20
2022-10-24T10:41:21.389Z,34.44
2022-10-24T10:44:05.314Z,34.95
2022-10-24T10:46:37.151Z,35.60
2022-10-24T10:49:24.553Z,35.56
2022-10-24T10:52:02.465Z,36.19
2022-10-24T10:54:58.277Z,35.83
2022-10-24T10:57:58.257Z,35.42
2022-10-24T11:00:59.013Z,34.99
2022-10-24T11:03:56.131Z,35.10
2022-10-24T11:06:38.444Z,33.74
2022-10-24T11:09:14.738Z,30.55
2022-10-24T11:11:46.963Z,27.88
2022-10-24T11:14:28.871Z,24.46
2022-10-24T11:17:01.628Z,23.44
2022-10-24T11:19:56.745Z,23.17
2022-10-24T11:22:33.817Z,22.90
2022-10-24T11:25:07.093Z,24.29
2022-10-24T11:27:52.333Z,24.12
2022-10-24T11:30:39.097Z,24.49
2022-10-24T11:33:14.452Z,23.55
2022-10-24T11:35:53.235Z,22.76
2022-10-24T11:38:25.832Z,21.50
2022-10-24T11:40:58.808Z,22.02
2022-10-24T11:43:36.510Z,21.72
2022-10-24T11:46:12.317Z,22.77
2022-10-24T11:48:56.258Z,24.51
2022-10-24T11:51:43.536Z,26.29
2022-10-24T11:54:22.698Z,28.50
2022-10-24T11:57:02.355Z,29.12
2022-10-24T11:59:30.583Z,30.66
2022-10-24T12:02:30.344Z,31.41
2022-10-24T12:05:14.572Z,33.05
2022-10-24T12:07:47.795Z,33.99
2022-10-24T12:10:45.551Z,34.65
2022-10-24T12:13:30.160Z,35.23
2022-10-24T12:16:02.616Z,34.94
2022-10-24T12:19:01.665Z,35.01
2022-10-24T12:21:37.853Z,36.13
2022-10-24T12:24:04.994Z,35.63
2022-10-24T12:26:35.733Z,35.84
2022-10-24T12:29:05.005Z,37.20
2022-10-24T12:31:33.164Z,36.61
2022-10-24T12:34:18.935Z,37.08
2022-10-24T12:37:11.121Z,37.21
2022-10-24T12:39:51.017Z,37.65
2022-10-24T12:42:19.247Z,37.06
2022-10-24T12:44:50.949Z,36.67
2022-10-24T12:47:29.562Z,36.11
2022-10-24T12:49:58.292Z,36.33
2022-10-24T12:52:30.993Z,37.03
2022-10-24T12:54:58.963Z,37.25
2022-10-24T12:57:37.234Z,36.61
2022-10-24T13:00:21.540Z,36.58
2022-10-24T13:02:59.917Z,36.25
2022-10-24T13:05:39.309Z,35.50
2022-10-24T13:08:48.148Z,35.68
2022-10-24T13:11:44.163Z,36.46
2022-10-24T13:14:22.860Z,37.06
2022-10-24T13:17:03.867Z,37.25
2022-10-24T13:19:31.301Z,36.91
2022-10-24T13:21:59.619Z,36.92
2022-10-24T13:24:35.969Z,37.43
2022-10-24T13:27:12.737Z,37.27
2022-10-24T13:29:39.818Z,37.98
2022-10-24T13:32:06.422Z,38.28
2022-10-24T13:34:52.356Z,38.41
2022-10-24T13:37:24.165Z,38.94
2022-10-24T13:39:55.218Z,38.36
2022-10-24T13:42:37.598Z,39.01
2022-10-24T13:45:33.629Z,39.41
2022-10-24T13:48:13.085Z,39.21
2022-10-24T13:51:00.938Z,39.66
2022-10-24T13:53:32.581Z,40.17
2022-10-24T13:56:05.193Z,40.54
2022-10-24T13:58:41.024Z,40.34
2022-10-24T14:01:22.708Z,40.78
2022-10-24T14:03:50.230Z,41.46
2022-10-24T14:06:24.520Z,41.09
2022-10-24T14:09:02.849Z,41.68
2022-10-24T14:11:33.664Z,41.28
2022-10-24T14:14:05.688Z,41.46
2022-10-24T14:16:35.434Z,41.62
2022-10-24T14:19:27.126Z,41.71
2022-10-24T14:21:57.922Z,42.02
2022-10-24T14:24:24.828Z,42.07
2022-10-24T14:26:54.054Z,42.00
2022-10-24T14:29:25.409Z,41.92
2022-10-24T14:31:58.588Z,41.67
2022-10-24T14:34:25.791Z,41.55
2022-10-24T14:36:53.382Z,41.84
2022-10-24T14:39:23.824Z,41.97
2022-10-24T14:41:52.462Z,42.01
2022-10-24T14:44:21.457Z,42.90
2022-10-24T14:47:21.660Z,42.15
2022-10-24T14:49:48.473Z,42.78
2022-10-24T14:52:18.487Z,43.36
2022-10-24T14:54:55.060Z,43.34
2022-10-24T14:57:23.006Z,43.42
2022-10-24T14:59:52.931Z,43.38
2022-10-24T15:02:37.522Z,43.54
2022-10-24T15:05:19.020Z,43.69
2022-10-24T15:08:02.795Z,43.47
2022-10-24T15:10:43.863Z,43.69
2022-10-24T15:13:10.530Z,43.65
2022-10-24T15:15:43.252Z,44.35
2022-10-24T15:18:31.612Z,44.22
2022-10-24T15:21:07.123Z,44.32
2022-10-24T15:23:37.982Z,44.79
2022-10-24T15:26:26.952Z,45.17
2022-10-24T15:28:55.327Z,45.19
2022-10-24T15:31:24.781Z,45.37
2022-10-24T15:33:51.518Z,45.64
2022-10-24T15:36:30.678Z,45.37
2022-10-24T15:39:27.686Z,45.41
2022-10-24T15:41:55.168Z,45.61
2022-10-24T15:44:25.582Z,46.09
2022-10-24T15:46:53.242Z,46.16
2022-10-24T15:49:19.951Z,46.11
2022-10-24T15:51:50.284Z,46.37
2022-10-24T15:54:20.367Z,46.67
2022-10-24T15:56:47.369Z,46.86
2022-10-24T15:59:14.543Z,46.81
2022-10-24T16:01:50.955Z,47.05
2022-10-24T16:04:18.453Z,47.34
2022-10-24T16:06:45.168Z,47.77
2022-10-24T16:09:18.128Z,48.01
2022-10-24T16:11:45.007Z,48.10
2022-10-24T16:14:17.100Z,48.97
2022-10-24T16:16:44.499Z,48.65
2022-10-24T16:19:11.500Z,49.57
2022-10-24T16:21:40.109Z,49.19
2022-10-24T16:24:07.982Z,49.56
2022-10-24T16:26:34.818Z,50.22
2022-10-24T16:29:01.616Z,49.92
2022-10-24T16:31:28.396Z,50.38
2022-10-24T16:33:55.061Z,50.78
2022-10-24T16:36:24.617Z,51.23
2022-10-24T16:38:52.102Z,51.09
2022-10-24T16:41:22.496Z,52.17
2022-10-24T16:43:50.402Z,52.22
2022-10-24T16:46:20.292Z,52.37
2022-10-24T16:48:47.520Z,52.47
2022-10-24T16:51:22.521Z,52.42
2022-10-24T16:53:49.619Z,53.01
2022-10-24T16:56:16.627Z,53.04
2022-10-24T16:58:43.670Z,53.22
2022-10-24T17:01:13.647Z,53.62
2022-10-24T17:03:42.423Z,53.59
2022-10-24T17:06:09.456Z,54.09
2022-10-24T17:08:36.274Z,53.97
2022-10-24T17:11:07.068Z,54.06
2022-10-24T17:13:39.308Z,53.80
2022-10-24T17:16:10.468Z,53.76
2022-10-24T17:18:37.885Z,53.50
2022-10-24T17:21:04.905Z,53.61
2022-10-24T17:23:32.013Z,53.56
2022-10-24T17:25:59.254Z,53.23
2022-10-24T17:28:30.950Z,53.90
2022-10-24T17:31:00.068Z,53.97
2022-10-24T17:33:27.270Z,53.46
2022-10-24T17:35:57.217Z,53.68
2022-10-24T17:38:45.390Z,54.08
2022-10-24T17:41:28.877Z,53.63
2022-10-24T17:43:55.781Z,54.14
2022-10-24T17:46:22.774Z,54.54
2022-10-24T17:48:50.542Z,54.34
2022-10-24T17:51:21.896Z,54.30
2022-10-24T17:53:48.998Z,55.00
2022-10-24T17:56:16.889Z,54.99
2022-10-24T17:58:46.621Z,54.65
2022-10-24T18:01:13.358Z,54.67
2022-10-24T18:03:40.259Z,55.09
2022-10-24T18:06:07.669Z,54.81
2022-10-24T18:08:34.458Z,54.86
2022-10-24T18:11:02.748Z,54.56
2022-10-24T18:13:29.899Z,54.58
2022-10-24T18:15:56.562Z,54.39
2022-10-24T18:18:23.303Z,54.48
2022-10-24T18:20:50.317Z,54.38
2022-10-24T18:23:17.350Z,54.89
2022-10-24T18:25:43.991Z,54.93
2022-10-24T18:28:10.641Z,55.66
2022-10-24T18:30:37.422Z,55.09
2022-10-24T18:33:04.327Z,55.16
2022-10-24T18:35:33.068Z,54.95
2022-10-24T18:37:59.903Z,55.22
2022-10-24T18:40:26.915Z,54.58
2022-10-24T18:42:58.509Z,55.17
2022-10-24T18:45:27.333Z,55.34
2022-10-24T18:47:54.379Z,55.42
2022-10-24T18:50:25.267Z,55.75
2022-10-24T18:52:58.213Z,55.78
2022-10-24T18:55:27.819Z,56.04
2022-10-24T18:57:55.030Z,56.11
2022-10-24T19:00:27.488Z,55.84
2022-10-24T19:03:23.673Z,55.99
2022-10-24T19:06:20.947Z,55.56
2022-10-24T19:08:47.722Z,54.98
2022-10-24T19:11:15.341Z,54.89
2022-10-24T19:13:44.701Z,54.84
2022-10-24T19:16:18.758Z,54.38
2022-10-24T19:18:57.261Z,53.78
2022-10-24T19:21:23.924Z,53.51
2022-10-24T19:23:51.101Z,53.26
2022-10-24T19:26:17.931Z,53.57
2022-10-24T19:28:44.899Z,53.31
2022-10-24T19:31:15.747Z,53.17
2022-10-24T19:33:42.983Z,52.58
2022-10-24T19:36:11.496Z,52.38
2022-10-24T19:38:39.049Z,52.44
2022-10-24T19:41:07.645Z,52.89
2022-10-24T19:43:34.394Z,52.55
2022-10-24T19:46:18.757Z,52.50
2022-10-24T19:48:51.101Z,52.42
2022-10-24T19:51:19.373Z,52.35
2022-10-24T19:53:46.990Z,52.39
2022-10-24T19:56:21.455Z,52.77
2022-10-24T19:58:50.973Z,52.54
2022-10-24T20:01:20.660Z,53.10
2022-10-24T20:03:48.857Z,52.71
2022-10-24T20:06:16.699Z,53.05
2022-10-24T20:08:45.165Z,52.91
2022-10-24T20:11:12.048Z,53.03
2022-10-24T20:13:38.667Z,53.58
2022-10-24T20:16:07.041Z,53.48
2022-10-24T20:18:35.546Z,54.02
2022-10-24T20:21:04.247Z,54.04
2022-10-24T20:23:31.137Z,54.30
2022-10-24T20:26:01.617Z,54.29
2022-10-24T20:28:28.663Z,54.28
2022-10-24T20:30:55.755Z,54.47
2022-10-24T20:33:22.462Z,54.96
2022-10-24T20:35:49.148Z,54.77
2022-10-24T20:38:15.817Z,55.35
2022-10-24T20:40:42.471Z,55.64
2022-10-24T20:43:09.236Z,55.91
2022-10-24T20:45:40.087Z,55.62
2022-10-24T20:48:06.952Z,55.80
2022-10-24T20:50:34.130Z,56.15
2022-10-24T20:53:00.857Z,56.25
2022-10-24T20:55:39.532Z,56.08
2022-10-24T20:58:13.657Z,56.03
2022-10-24T21:03:11.904Z,56.59
2022-10-24T21:05:38.685Z,57.06
2022-10-24T21:08:05.626Z,56.92
2022-10-24T21:10:32.301Z,56.54
2022-10-24T21:12:58.964Z,56.42
2022-10-24T21:15:25.621Z,57.11
2022-10-24T21:17:52.261Z,56.84
2022-10-24T21:20:18.961Z,56.81
2022-10-24T21:22:45.596Z,57.32
2022-10-24T21:25:12.284Z,57.52
2022-10-24T21:27:38.929Z,57.90
2022-10-24T21:30:07.953Z,57.84
2022-10-24T21:32:36.507Z,58.28
2022-10-24T21:35:03.350Z,58.35
2022-10-24T21:37:33.051Z,58.05
2022-10-24T21:39:59.666Z,58.03
2022-10-24T21:42:26.446Z,58.31
2022-10-24T21:44:53.138Z,58.68
2022-10-24T21:47:19.801Z,58.75
2022-10-24T21:49:46.402Z,58.78
2022-10-24T21:52:13.078Z,59.13
2022-10-24T21:54:39.717Z,59.36
2022-10-24T21:57:06.375Z,59.04
2022-10-24T21:59:33.050Z,59.12
2022-10-24T22:01:59.980Z,59.43
2022-10-24T22:04:27.294Z,59.13
2022-10-24T22:06:53.933Z,59.40
2022-10-24T22:09:23.775Z,58.85
2022-10-24T22:11:50.617Z,58.59
2022-10-24T22:14:17.953Z,58.52
2022-10-24T22:16:45.671Z,58.55
2022-10-24T22:19:13.131Z,59.01
2022-10-24T22:21:46.238Z,59.97
2022-10-24T22:24:19.114Z,59.55
2022-10-24T22:26:46.929Z,59.52
2022-10-24T22:29:16.463Z,59.90
2022-10-24T22:31:44.230Z,60.21
2022-10-24T22:34:15.161Z,60.25
2022-10-24T22:37:12.647Z,60.71
2022-10-24T22:39:40.264Z,60.58
2022-10-24T22:42:09.677Z,60.48
2022-10-24T22:44:36.649Z,60.34
2022-10-24T22:47:13.608Z,60.99
2022-10-24T22:50:05.048Z,60.90
2022-10-24T22:52:31.986Z,60.87
2022-10-24T22:54:59.002Z,61.28
2022-10-24T22:57:25.979Z,61.70
2022-10-24T22:59:52.969Z,61.78
2022-10-24T23:02:28.124Z,61.67
2022-10-24T23:05:03.720Z,61.40
2022-10-24T23:07:35.784Z,61.68
2022-10-24T23:10:02.459Z,62.36
2022-10-24T23:12:29.601Z,61.79
2022-10-24T23:14:56.487Z,62.04
2022-10-24T23:17:28.536Z,61.84
2022-10-24T23:19:56.723Z,61.94
2022-10-24T23:22:26.620Z,61.97
2022-10-24T23:24:56.319Z,62.14
2022-10-24T23:27:41.274Z,62.32
2022-10-24T23:30:16.310Z,62.31
2022-10-24T23:32:43.947Z,62.78
2022-10-24T23:35:13.546Z,63.08
2022-10-24T23:37:48.922Z,63.17
2022-10-24T23:40:26.842Z,63.29
2022-10-24T23:42:53.755Z,63.08
2022-10-24T23:45:23.476Z,63.14
2022-10-24T23:47:50.240Z,63.81
2022-10-24T23:50:35.785Z,63.83
2022-10-24T23:53:23.899Z,64.03
2022-10-24T23:55:50.843Z,64.63
2022-10-24T23:58:17.924Z,64.95
